sensor_id;sensor_type;location;lat;lon;timestamp;pressure;altitude;pressure_sealevel;temperature;humidity
61026;BME280;46911;32.650;-16.902;2022-07-17T00:01:32;101672.81;;;20.04;68.41
61026;BME280;46911;32.650;-16.902;2022-07-17T00:03:33;101663.13;;;19.92;68.15
61026;BME280;46911;32.650;-16.902;2022-07-17T00:05:37;101677.53;;;19.93;68.51
61026;BME280;46911;32.650;-16.902;2022-07-17T00:07:41;101621.47;;;19.64;69.02
61026;BME280;46911;32.650;-16.902;2022-07-17T00:09:44;101676.25;;;19.87;68.93
61026;BME280;46911;32.650;-16.902;2022-07-17T00:11:45;101664.81;;;19.73;69.13
61026;BME280;46911;32.650;-16.902;2022-07-17T00:13:48;101673.34;;;19.79;69.31
61026;BME280;46911;32.650;-16.902;2022-07-17T00:15:49;101655.69;;;19.65;69.35
61026;BME280;46911;32.650;-16.902;2022-07-17T00:17:53;101670.50;;;19.70;69.75
61026;BME280;46911;32.650;-16.902;2022-07-17T00:19:59;101668.38;;;19.64;69.99
61026;BME280;46911;32.650;-16.902;2022-07-17T00:22:00;101669.34;;;19.63;70.51
61026;BME280;46911;32.650;-16.902;2022-07-17T00:24:01;101654.25;;;19.51;70.27
61026;BME280;46911;32.650;-16.902;2022-07-17T00:26:02;101665.91;;;19.51;70.77
61026;BME280;46911;32.650;-16.902;2022-07-17T00:28:05;101652.94;;;19.45;70.90
61026;BME280;46911;32.650;-16.902;2022-07-17T00:30:08;101649.38;;;19.45;71.14
61026;BME280;46911;32.650;-16.902;2022-07-17T00:32:09;101657.94;;;19.50;71.17
61026;BME280;46911;32.650;-16.902;2022-07-17T00:34:12;101664.19;;;19.50;70.69
61026;BME280;46911;32.650;-16.902;2022-07-17T00:36:13;101642.69;;;19.39;71.20
61026;BME280;46911;32.650;-16.902;2022-07-17T00:38:16;101642.38;;;19.32;71.13
61026;BME280;46911;32.650;-16.902;2022-07-17T00:40:23;101649.22;;;19.36;70.86
61026;BME280;46911;32.650;-16.902;2022-07-17T00:42:24;101661.06;;;19.45;70.90
61026;BME280;46911;32.650;-16.902;2022-07-17T00:44:27;101658.50;;;19.44;70.82
61026;BME280;46911;32.650;-16.902;2022-07-17T00:46:31;101663.91;;;19.44;70.69
61026;BME280;46911;32.650;-16.902;2022-07-17T00:48:34;101648.78;;;19.41;70.56
61026;BME280;46911;32.650;-16.902;2022-07-17T00:50:42;101656.06;;;19.40;70.40
61026;BME280;46911;32.650;-16.902;2022-07-17T00:52:50;101651.94;;;19.36;70.27
61026;BME280;46911;32.650;-16.902;2022-07-17T00:54:51;101646.78;;;19.33;70.34
61026;BME280;46911;32.650;-16.902;2022-07-17T00:56:58;101648.78;;;19.31;70.46
61026;BME280;46911;32.650;-16.902;2022-07-17T00:59:01;101637.97;;;19.21;69.98
61026;BME280;46911;32.650;-16.902;2022-07-17T01:01:05;101647.06;;;19.30;69.66
61026;BME280;46911;32.650;-16.902;2022-07-17T01:03:10;101630.97;;;19.19;69.74
61026;BME280;46911;32.650;-16.902;2022-07-17T01:05:15;101604.84;;;18.98;69.77
61026;BME280;46911;32.650;-16.902;2022-07-17T01:07:19;101620.41;;;19.06;69.96
61026;BME280;46911;32.650;-16.902;2022-07-17T01:09:23;101627.22;;;19.10;69.67
61026;BME280;46911;32.650;-16.902;2022-07-17T01:11:24;101616.53;;;18.99;69.73
61026;BME280;46911;32.650;-16.902;2022-07-17T01:13:26;101625.34;;;19.01;69.28
61026;BME280;46911;32.650;-16.902;2022-07-17T01:15:29;101635.88;;;19.04;69.32
61026;BME280;46911;32.650;-16.902;2022-07-17T01:17:30;101629.78;;;19.02;69.36
61026;BME280;46911;32.650;-16.902;2022-07-17T01:19:34;101642.72;;;18.98;69.43
61026;BME280;46911;32.650;-16.902;2022-07-17T01:21:45;101627.06;;;18.92;69.58
61026;BME280;46911;32.650;-16.902;2022-07-17T01:23:48;101633.81;;;18.86;69.91
61026;BME280;46911;32.650;-16.902;2022-07-17T01:25:49;101627.41;;;18.87;69.79
61026;BME280;46911;32.650;-16.902;2022-07-17T01:27:53;101626.31;;;18.90;69.89
61026;BME280;46911;32.650;-16.902;2022-07-17T01:29:56;101622.28;;;18.84;69.81
61026;BME280;46911;32.650;-16.902;2022-07-17T01:31:57;101602.75;;;18.71;69.99
61026;BME280;46911;32.650;-16.902;2022-07-17T01:34:00;101597.47;;;18.69;69.68
61026;BME280;46911;32.650;-16.902;2022-07-17T01:36:01;101620.25;;;18.77;69.79
61026;BME280;46911;32.650;-16.902;2022-07-17T01:38:02;101602.44;;;18.64;69.45
61026;BME280;46911;32.650;-16.902;2022-07-17T01:40:07;101620.41;;;18.75;69.76
61026;BME280;46911;32.650;-16.902;2022-07-17T01:42:13;101612.69;;;18.70;69.52
61026;BME280;46911;32.650;-16.902;2022-07-17T01:44:14;101607.56;;;18.67;69.78
61026;BME280;46911;32.650;-16.902;2022-07-17T01:46:17;101595.44;;;18.62;69.60
61026;BME280;46911;32.650;-16.902;2022-07-17T01:48:28;101612.44;;;18.73;69.33
61026;BME280;46911;32.650;-16.902;2022-07-17T01:50:30;101596.16;;;18.64;69.20
61026;BME280;46911;32.650;-16.902;2022-07-17T01:52:31;101588.63;;;18.57;68.76
61026;BME280;46911;32.650;-16.902;2022-07-17T01:54:36;101612.69;;;18.70;68.78
61026;BME280;46911;32.650;-16.902;2022-07-17T01:56:37;101596.44;;;18.61;68.95
61026;BME280;46911;32.650;-16.902;2022-07-17T01:58:40;101601.03;;;18.70;68.62
61026;BME280;46911;32.650;-16.902;2022-07-17T02:00:46;101601.88;;;18.70;68.45
61026;BME280;46911;32.650;-16.902;2022-07-17T02:02:49;101600.88;;;18.71;68.40
61026;BME280;46911;32.650;-16.902;2022-07-17T02:04:50;101598.31;;;18.70;68.72
61026;BME280;46911;32.650;-16.902;2022-07-17T02:06:54;101599.44;;;18.67;68.77
61026;BME280;46911;32.650;-16.902;2022-07-17T02:09:00;101583.34;;;18.56;68.91
61026;BME280;46911;32.650;-16.902;2022-07-17T02:11:04;101600.44;;;18.66;68.62
61026;BME280;46911;32.650;-16.902;2022-07-17T02:13:09;101588.94;;;18.64;68.65
61026;BME280;46911;32.650;-16.902;2022-07-17T02:15:13;101600.44;;;18.66;68.71
61026;BME280;46911;32.650;-16.902;2022-07-17T02:17:14;101567.66;;;18.50;68.58
61026;BME280;46911;32.650;-16.902;2022-07-17T02:19:15;101573.66;;;18.53;68.26
61026;BME280;46911;32.650;-16.902;2022-07-17T02:21:21;101537.47;;;18.35;67.89
61026;BME280;46911;32.650;-16.902;2022-07-17T02:23:22;101592.31;;;18.66;67.95
61026;BME280;46911;32.650;-16.902;2022-07-17T02:25:23;101561.72;;;18.56;67.57
61026;BME280;46911;32.650;-16.902;2022-07-17T02:27:31;101577.69;;;18.69;67.20
61026;BME280;46911;32.650;-16.902;2022-07-17T02:29:39;101580.16;;;18.72;66.88
61026;BME280;46911;32.650;-16.902;2022-07-17T02:31:43;101576.41;;;18.73;67.06
61026;BME280;46911;32.650;-16.902;2022-07-17T02:33:46;101571.59;;;18.67;66.65
61026;BME280;46911;32.650;-16.902;2022-07-17T02:35:47;101576.16;;;18.76;66.67
61026;BME280;46911;32.650;-16.902;2022-07-17T02:37:52;101547.22;;;18.57;66.61
61026;BME280;46911;32.650;-16.902;2022-07-17T02:39:58;101571.59;;;18.67;67.06
61026;BME280;46911;32.650;-16.902;2022-07-17T02:42:01;101554.88;;;18.52;66.93
61026;BME280;46911;32.650;-16.902;2022-07-17T02:44:02;101575.66;;;18.61;67.11
61026;BME280;46911;32.650;-16.902;2022-07-17T02:46:05;101553.31;;;18.49;67.04
61026;BME280;46911;32.650;-16.902;2022-07-17T02:48:09;101567.97;;;18.56;66.99
61026;BME280;46911;32.650;-16.902;2022-07-17T02:50:12;101560.25;;;18.52;67.36
61026;BME280;46911;32.650;-16.902;2022-07-17T02:52:12;101567.38;;;18.53;67.19
61026;BME280;46911;32.650;-16.902;2022-07-17T02:54:13;101539.28;;;18.34;67.32
61026;BME280;46911;32.650;-16.902;2022-07-17T02:56:14;101565.34;;;18.45;67.45
61026;BME280;46911;32.650;-16.902;2022-07-17T02:58:17;101564.38;;;18.46;67.41
61026;BME280;46911;32.650;-16.902;2022-07-17T03:00:19;101552.56;;;18.37;67.35
61026;BME280;46911;32.650;-16.902;2022-07-17T03:02:21;101566.22;;;18.46;67.38
61026;BME280;46911;32.650;-16.902;2022-07-17T03:04:24;101567.06;;;18.46;67.68
61026;BME280;46911;32.650;-16.902;2022-07-17T03:06:29;101550.97;;;18.35;67.60
61026;BME280;46911;32.650;-16.902;2022-07-17T03:08:30;101566.50;;;18.43;67.39
61026;BME280;46911;32.650;-16.902;2022-07-17T03:10:33;101538.28;;;18.26;67.83
61026;BME280;46911;32.650;-16.902;2022-07-17T03:12:34;101534.59;;;18.27;67.61
61026;BME280;46911;32.650;-16.902;2022-07-17T03:14:35;101566.75;;;18.39;67.80
61026;BME280;46911;32.650;-16.902;2022-07-17T03:16:38;101560.50;;;18.39;67.82
61026;BME280;46911;32.650;-16.902;2022-07-17T03:18:39;101537.28;;;18.27;68.02
61026;BME280;46911;32.650;-16.902;2022-07-17T03:20:42;101556.09;;;18.38;67.95
61026;BME280;46911;32.650;-16.902;2022-07-17T03:22:45;101531.28;;;18.23;68.17
61026;BME280;46911;32.650;-16.902;2022-07-17T03:24:46;101554.25;;;18.38;68.28
61026;BME280;46911;32.650;-16.902;2022-07-17T03:26:46;101552.56;;;18.37;68.25
61026;BME280;46911;32.650;-16.902;2022-07-17T03:28:47;101522.91;;;18.26;68.73
61026;BME280;46911;32.650;-16.902;2022-07-17T03:30:48;101549.56;;;18.40;68.81
61026;BME280;46911;32.650;-16.902;2022-07-17T03:32:49;101535.16;;;18.30;68.84
61026;BME280;46911;32.650;-16.902;2022-07-17T03:34:52;101556.09;;;18.38;69.34
61026;BME280;46911;32.650;-16.902;2022-07-17T03:36:53;101538.31;;;18.35;69.28
61026;BME280;46911;32.650;-16.902;2022-07-17T03:38:56;101539.19;;;18.36;68.89
61026;BME280;46911;32.650;-16.902;2022-07-17T03:40:57;101535.16;;;18.30;69.07
61026;BME280;46911;32.650;-16.902;2022-07-17T03:42:58;101546.03;;;18.40;68.78
61026;BME280;46911;32.650;-16.902;2022-07-17T03:44:59;101537.16;;;18.28;69.18
61026;BME280;46911;32.650;-16.902;2022-07-17T03:47:02;101555.25;;;18.37;69.40
61026;BME280;46911;32.650;-16.902;2022-07-17T03:49:03;101537.41;;;18.25;69.47
61026;BME280;46911;32.650;-16.902;2022-07-17T03:51:06;101536.28;;;18.28;69.59
61026;BME280;46911;32.650;-16.902;2022-07-17T03:53:07;101543.41;;;18.29;69.46
61026;BME280;46911;32.650;-16.902;2022-07-17T03:55:08;101540.00;;;18.27;69.81
61026;BME280;46911;32.650;-16.902;2022-07-17T03:57:11;101531.47;;;18.31;69.71
61026;BME280;46911;32.650;-16.902;2022-07-17T03:59:12;101548.84;;;18.38;69.92
61026;BME280;46911;32.650;-16.902;2022-07-17T04:01:15;101527.63;;;18.24;70.14
61026;BME280;46911;32.650;-16.902;2022-07-17T04:03:16;101531.28;;;18.23;70.09
61026;BME280;46911;32.650;-16.902;2022-07-17T04:05:20;101558.34;;;18.33;70.65
61026;BME280;46911;32.650;-16.902;2022-07-17T04:07:20;101541.38;;;18.21;70.74
61026;BME280;46911;32.650;-16.902;2022-07-17T04:09:30;101536.25;;;18.18;70.82
61026;BME280;46911;32.650;-16.902;2022-07-17T04:11:30;101554.47;;;18.26;71.08
61026;BME280;46911;32.650;-16.902;2022-07-17T04:13:31;101547.50;;;18.23;71.35
61026;BME280;46911;32.650;-16.902;2022-07-17T04:15:32;101530.97;;;18.16;71.50
61026;BME280;46911;32.650;-16.902;2022-07-17T04:17:51;101553.06;;;18.31;71.59
61026;BME280;46911;32.650;-16.902;2022-07-17T04:19:57;101552.09;;;18.32;71.55
61026;BME280;46911;32.650;-16.902;2022-07-17T04:21:58;101548.41;;;18.33;71.03
61026;BME280;46911;32.650;-16.902;2022-07-17T04:23:58;101544.97;;;18.31;71.10
61026;BME280;46911;32.650;-16.902;2022-07-17T04:25:59;101551.13;;;18.33;70.87
61026;BME280;46911;32.650;-16.902;2022-07-17T04:28:03;101542.56;;;18.28;70.91
61026;BME280;46911;32.650;-16.902;2022-07-17T04:30:04;101530.69;;;18.19;70.78
61026;BME280;46911;32.650;-16.902;2022-07-17T04:32:09;101548.47;;;18.22;70.91
61026;BME280;46911;32.650;-16.902;2022-07-17T04:34:15;101544.63;;;18.15;70.80
61026;BME280;46911;32.650;-16.902;2022-07-17T04:36:16;101553.28;;;18.18;71.45
61026;BME280;46911;32.650;-16.902;2022-07-17T04:38:17;101564.53;;;18.23;71.01
61026;BME280;46911;32.650;-16.902;2022-07-17T04:40:20;101544.75;;;18.13;70.70
61026;BME280;46911;32.650;-16.902;2022-07-17T04:42:21;101551.84;;;18.14;70.56
61026;BME280;46911;32.650;-16.902;2022-07-17T04:44:22;101562.72;;;18.24;70.11
61026;BME280;46911;32.650;-16.902;2022-07-17T04:46:23;101565.19;;;18.16;70.30
61026;BME280;46911;32.650;-16.902;2022-07-17T04:48:24;101559.25;;;18.12;70.05
61026;BME280;46911;32.650;-16.902;2022-07-17T04:50:25;101563.19;;;18.08;69.97
61026;BME280;46911;32.650;-16.902;2022-07-17T04:52:31;101565.47;;;18.13;69.66
61026;BME280;46911;32.650;-16.902;2022-07-17T04:54:32;101590.25;;;18.18;69.43
61026;BME280;46911;32.650;-16.902;2022-07-17T04:56:35;101579.84;;;18.13;69.73
61026;BME280;46911;32.650;-16.902;2022-07-17T04:58:36;101569.31;;;18.10;69.52
61026;BME280;46911;32.650;-16.902;2022-07-17T05:00:37;101589.97;;;18.21;69.41
61026;BME280;46911;32.650;-16.902;2022-07-17T05:02:40;101587.41;;;18.19;69.58
61026;BME280;46911;32.650;-16.902;2022-07-17T05:04:48;101556.22;;;18.05;69.71
61026;BME280;46911;32.650;-16.902;2022-07-17T05:06:52;101583.88;;;18.19;69.85
61026;BME280;46911;32.650;-16.902;2022-07-17T05:08:53;101587.41;;;18.19;69.93
61026;BME280;46911;32.650;-16.902;2022-07-17T05:10:54;101584.44;;;18.22;70.01
61026;BME280;46911;32.650;-16.902;2022-07-17T05:12:54;101560.53;;;18.18;69.66
61026;BME280;46911;32.650;-16.902;2022-07-17T05:14:55;101579.03;;;18.22;69.84
61026;BME280;46911;32.650;-16.902;2022-07-17T05:16:56;101568.38;;;18.21;69.98
61026;BME280;46911;32.650;-16.902;2022-07-17T05:18:57;101582.59;;;18.23;70.09
61026;BME280;46911;32.650;-16.902;2022-07-17T05:21:04;101582.00;;;18.19;70.26
61026;BME280;46911;32.650;-16.902;2022-07-17T05:23:05;101585.59;;;18.20;70.30
61026;BME280;46911;32.650;-16.902;2022-07-17T05:25:06;101561.34;;;18.09;70.28
61026;BME280;46911;32.650;-16.902;2022-07-17T05:27:09;101586.81;;;18.16;70.18
61026;BME280;46911;32.650;-16.902;2022-07-17T05:29:15;101569.72;;;18.05;70.33
61026;BME280;46911;32.650;-16.902;2022-07-17T05:31:16;101567.16;;;18.04;70.17
61026;BME280;46911;32.650;-16.902;2022-07-17T05:33:17;101579.13;;;18.11;70.43
61026;BME280;46911;32.650;-16.902;2022-07-17T05:35:23;101568.84;;;18.05;70.69
61026;BME280;46911;32.650;-16.902;2022-07-17T05:37:24;101592.00;;;18.07;70.85
61026;BME280;46911;32.650;-16.902;2022-07-17T05:39:28;101568.78;;;17.95;70.81
61026;BME280;46911;32.650;-16.902;2022-07-17T05:41:33;101567.94;;;17.95;70.97
61026;BME280;46911;32.650;-16.902;2022-07-17T05:43:34;101594.84;;;18.06;71.20
61026;BME280;46911;32.650;-16.902;2022-07-17T05:45:42;101598.44;;;18.06;71.27
61026;BME280;46911;32.650;-16.902;2022-07-17T05:47:43;101574.56;;;17.90;71.22
61026;BME280;46911;32.650;-16.902;2022-07-17T05:49:46;101594.25;;;18.02;71.24
61026;BME280;46911;32.650;-16.902;2022-07-17T05:51:50;101597.09;;;18.01;71.58
61026;BME280;46911;32.650;-16.902;2022-07-17T05:53:50;101599.78;;;18.01;71.70
61026;BME280;46911;32.650;-16.902;2022-07-17T05:55:51;101602.63;;;17.99;71.58
61026;BME280;46911;32.650;-16.902;2022-07-17T05:57:52;101576.06;;;17.83;72.06
61026;BME280;46911;32.650;-16.902;2022-07-17T05:59:53;101600.91;;;17.98;71.86
61026;BME280;46911;32.650;-16.902;2022-07-17T06:01:54;101578.63;;;17.85;71.98
61026;BME280;46911;32.650;-16.902;2022-07-17T06:03:55;101591.50;;;17.93;72.02
61026;BME280;46911;32.650;-16.902;2022-07-17T06:05:55;101603.88;;;17.95;71.95
61026;BME280;46911;32.650;-16.902;2022-07-17T06:07:57;101603.75;;;17.97;72.07
61026;BME280;46911;32.650;-16.902;2022-07-17T06:09:58;101606.72;;;17.94;72.51
61026;BME280;46911;32.650;-16.902;2022-07-17T06:11:59;101581.59;;;17.82;72.76
61026;BME280;46911;32.650;-16.902;2022-07-17T06:14:04;101607.31;;;17.97;73.17
61026;BME280;46911;32.650;-16.902;2022-07-17T06:16:05;101588.56;;;17.84;73.24
61026;BME280;46911;32.650;-16.902;2022-07-17T06:18:11;101608.53;;;17.93;73.62
61026;BME280;46911;32.650;-16.902;2022-07-17T06:20:13;101616.13;;;17.99;73.69
61026;BME280;46911;32.650;-16.902;2022-07-17T06:22:16;101598.97;;;17.89;74.02
61026;BME280;46911;32.650;-16.902;2022-07-17T06:24:17;101613.41;;;17.99;73.99
61026;BME280;46911;32.650;-16.902;2022-07-17T06:26:20;101620.28;;;18.03;74.11
61026;BME280;46911;32.650;-16.902;2022-07-17T06:28:25;101632.38;;;18.09;73.52
61026;BME280;46911;32.650;-16.902;2022-07-17T06:30:28;101629.56;;;18.11;73.20
61026;BME280;46911;32.650;-16.902;2022-07-17T06:32:29;101607.03;;;18.00;72.64
61026;BME280;46911;32.650;-16.902;2022-07-17T06:34:33;101624.59;;;18.16;72.35
61026;BME280;46911;32.650;-16.902;2022-07-17T06:36:34;101623.91;;;18.14;72.26
61026;BME280;46911;32.650;-16.902;2022-07-17T06:38:37;101632.06;;;18.23;71.95
61026;BME280;46911;32.650;-16.902;2022-07-17T06:40:38;101629.97;;;18.27;72.03
61026;BME280;46911;32.650;-16.902;2022-07-17T06:42:39;101637.41;;;18.35;71.59
61026;BME280;46911;32.650;-16.902;2022-07-17T06:44:43;101646.06;;;18.38;71.53
61026;BME280;46911;32.650;-16.902;2022-07-17T06:46:49;101641.00;;;18.45;71.06
61026;BME280;46911;32.650;-16.902;2022-07-17T06:48:54;101643.31;;;18.50;70.70
61026;BME280;46911;32.650;-16.902;2022-07-17T06:51:01;101644.75;;;18.54;70.44
61026;BME280;46911;32.650;-16.902;2022-07-17T06:53:04;101648.75;;;18.60;70.27
61026;BME280;46911;32.650;-16.902;2022-07-17T06:55:10;101628.53;;;18.54;69.51
61026;BME280;46911;32.650;-16.902;2022-07-17T06:57:13;101633.44;;;18.60;69.51
61026;BME280;46911;32.650;-16.902;2022-07-17T06:59:21;101630.16;;;18.66;69.01
61026;BME280;46911;32.650;-16.902;2022-07-17T07:01:22;101638.91;;;18.80;68.73
61026;BME280;46911;32.650;-16.902;2022-07-17T07:03:23;101643.63;;;18.87;68.20
61026;BME280;46911;32.650;-16.902;2022-07-17T07:05:27;101639.00;;;18.89;68.15
61026;BME280;46911;32.650;-16.902;2022-07-17T07:07:27;101647.88;;;19.01;67.80
61026;BME280;46911;32.650;-16.902;2022-07-17T07:09:31;101648.03;;;19.10;67.70
61026;BME280;46911;32.650;-16.902;2022-07-17T07:11:33;101649.47;;;19.14;67.65
61026;BME280;46911;32.650;-16.902;2022-07-17T07:13:34;101644.19;;;19.12;67.39
61026;BME280;46911;32.650;-16.902;2022-07-17T07:15:37;101628.94;;;19.11;67.64
61026;BME280;46911;32.650;-16.902;2022-07-17T07:17:40;101634.53;;;19.19;67.48
61026;BME280;46911;32.650;-16.902;2022-07-17T07:19:41;101643.38;;;19.31;67.15
61026;BME280;46911;32.650;-16.902;2022-07-17T07:21:42;101659.06;;;19.47;66.89
61026;BME280;46911;32.650;-16.902;2022-07-17T07:23:45;101641.56;;;19.51;66.45
61026;BME280;46911;32.650;-16.902;2022-07-17T07:25:48;101648.69;;;19.62;66.31
61026;BME280;46911;32.650;-16.902;2022-07-17T07:27:49;101642.00;;;19.66;66.04
61026;BME280;46911;32.650;-16.902;2022-07-17T07:29:54;101662.84;;;19.85;65.67
61026;BME280;46911;32.650;-16.902;2022-07-17T07:31:55;101667.09;;;19.88;65.89
61026;BME280;46911;32.650;-16.902;2022-07-17T07:33:56;101666.84;;;19.91;65.90
61026;BME280;46911;32.650;-16.902;2022-07-17T07:35:59;101648.88;;;19.80;65.49
61026;BME280;46911;32.650;-16.902;2022-07-17T07:38:05;101660.28;;;19.84;65.54
61026;BME280;46911;32.650;-16.902;2022-07-17T07:40:07;101661.81;;;19.77;65.91
61026;BME280;46911;32.650;-16.902;2022-07-17T07:42:08;101680.34;;;19.81;66.30
61026;BME280;46911;32.650;-16.902;2022-07-17T07:44:09;101665.06;;;19.70;66.78
61026;BME280;46911;32.650;-16.902;2022-07-17T07:46:09;101633.44;;;19.51;66.89
61026;BME280;46911;32.650;-16.902;2022-07-17T07:48:10;101683.06;;;19.81;67.07
61026;BME280;46911;32.650;-16.902;2022-07-17T07:50:14;101672.06;;;19.73;66.88
61026;BME280;46911;32.650;-16.902;2022-07-17T07:52:17;101694.78;;;19.82;66.77
61026;BME280;46911;32.650;-16.902;2022-07-17T07:54:18;101691.03;;;19.83;66.99
61026;BME280;46911;32.650;-16.902;2022-07-17T07:56:19;101687.34;;;19.84;66.85
61026;BME280;46911;32.650;-16.902;2022-07-17T07:58:22;101691.03;;;19.83;66.90
61026;BME280;46911;32.650;-16.902;2022-07-17T08:00:23;101698.75;;;19.87;67.05
61026;BME280;46911;32.650;-16.902;2022-07-17T08:02:24;101682.22;;;19.81;67.39
61026;BME280;46911;32.650;-16.902;2022-07-17T08:04:27;101681.66;;;19.87;67.00
61026;BME280;46911;32.650;-16.902;2022-07-17T08:06:28;101702.63;;;20.04;66.99
61026;BME280;46911;32.650;-16.902;2022-07-17T08:08:28;101688.94;;;20.06;67.15
61026;BME280;46911;32.650;-16.902;2022-07-17T08:10:29;101687.19;;;20.15;67.28
61026;BME280;46911;32.650;-16.902;2022-07-17T08:12:33;101678.22;;;20.24;67.38
61026;BME280;46911;32.650;-16.902;2022-07-17T08:14:38;101684.19;;;20.37;67.45
61026;BME280;46911;32.650;-16.902;2022-07-17T08:16:39;101699.41;;;20.58;66.74
61026;BME280;46911;32.650;-16.902;2022-07-17T08:18:40;101698.69;;;20.66;66.98
61026;BME280;46911;32.650;-16.902;2022-07-17T08:20:40;101692.41;;;20.65;66.57
61026;BME280;46911;32.650;-16.902;2022-07-17T08:22:46;101692.44;;;20.55;66.85
61026;BME280;46911;32.650;-16.902;2022-07-17T08:24:47;101710.69;;;20.63;67.00
61026;BME280;46911;32.650;-16.902;2022-07-17T08:26:48;101705.38;;;20.62;67.38
61026;BME280;46911;32.650;-16.902;2022-07-17T08:28:48;101701.56;;;20.54;67.30
61026;BME280;46911;32.650;-16.902;2022-07-17T08:30:49;101695.28;;;20.54;67.64
61026;BME280;46911;32.650;-16.902;2022-07-17T08:32:50;101703.84;;;20.69;67.35
61026;BME280;46911;32.650;-16.902;2022-07-17T08:34:54;101721.75;;;20.89;67.01
61026;BME280;46911;32.650;-16.902;2022-07-17T08:36:59;101727.53;;;21.04;67.32
61026;BME280;46911;32.650;-16.902;2022-07-17T08:39:03;101716.84;;;21.13;67.48
61026;BME280;46911;32.650;-16.902;2022-07-17T08:41:04;101719.66;;;21.21;67.74
61026;BME280;46911;32.650;-16.902;2022-07-17T08:43:06;101703.88;;;21.34;70.86
61026;BME280;46911;32.650;-16.902;2022-07-17T08:45:12;101705.03;;;21.32;72.13
61026;BME280;46911;32.650;-16.902;2022-07-17T08:47:16;101702.44;;;21.02;74.46
61026;BME280;46911;32.650;-16.902;2022-07-17T08:49:21;101704.94;;;21.14;74.32
61026;BME280;46911;32.650;-16.902;2022-07-17T08:51:27;101700.25;;;21.16;74.11
61026;BME280;46911;32.650;-16.902;2022-07-17T08:53:28;101699.41;;;21.15;74.93
61026;BME280;46911;32.650;-16.902;2022-07-17T08:55:29;101723.06;;;21.23;74.40
61026;BME280;46911;32.650;-16.902;2022-07-17T08:57:30;101721.63;;;21.29;73.97
61026;BME280;46911;32.650;-16.902;2022-07-17T08:59:31;101701.09;;;21.16;74.80
61026;BME280;46911;32.650;-16.902;2022-07-17T09:01:34;101726.56;;;21.33;74.60
61026;BME280;46911;32.650;-16.902;2022-07-17T09:03:38;101706.19;;;21.29;74.22
61026;BME280;46911;32.650;-16.902;2022-07-17T09:05:42;101719.97;;;21.18;74.08
61026;BME280;46911;32.650;-16.902;2022-07-17T09:07:50;101708.69;;;21.13;74.02
61026;BME280;46911;32.650;-16.902;2022-07-17T09:09:52;101722.06;;;21.24;74.12
61026;BME280;46911;32.650;-16.902;2022-07-17T09:11:56;101717.75;;;21.31;74.10
61026;BME280;46911;32.650;-16.902;2022-07-17T09:14:02;101725.13;;;21.39;73.96
61026;BME280;46911;32.650;-16.902;2022-07-17T09:16:10;101709.53;;;21.41;73.15
61026;BME280;46911;32.650;-16.902;2022-07-17T09:18:17;101713.50;;;21.47;73.36
61026;BME280;46911;32.650;-16.902;2022-07-17T09:20:22;101723.78;;;21.53;72.77
61026;BME280;46911;32.650;-16.902;2022-07-17T09:22:25;101730.94;;;21.54;72.75
61026;BME280;46911;32.650;-16.902;2022-07-17T09:24:47;101730.50;;;21.77;72.72
61026;BME280;46911;32.650;-16.902;2022-07-17T09:26:49;101720.19;;;22.16;71.64
61026;BME280;46911;32.650;-16.902;2022-07-17T09:28:49;101726.34;;;22.36;70.18
61026;BME280;46911;32.650;-16.902;2022-07-17T09:30:53;101724.91;;;22.77;69.03
61026;BME280;46911;32.650;-16.902;2022-07-17T09:33:02;101721.00;;;23.05;67.40
61026;BME280;46911;32.650;-16.902;2022-07-17T09:35:10;101729.22;;;22.87;67.75
61026;BME280;46911;32.650;-16.902;2022-07-17T09:37:11;101721.72;;;22.81;68.05
61026;BME280;46911;32.650;-16.902;2022-07-17T09:39:12;101728.19;;;23.41;67.09
61026;BME280;46911;32.650;-16.902;2022-07-17T09:41:15;101733.91;;;23.30;66.21
61026;BME280;46911;32.650;-16.902;2022-07-17T09:43:19;101723.06;;;23.46;65.78
61026;BME280;46911;32.650;-16.902;2022-07-17T09:45:20;101728.09;;;23.76;65.05
61026;BME280;46911;32.650;-16.902;2022-07-17T09:47:24;101731.88;;;23.74;64.75
61026;BME280;46911;32.650;-16.902;2022-07-17T09:49:30;101723.03;;;23.89;64.52
61026;BME280;46911;32.650;-16.902;2022-07-17T09:51:37;101727.50;;;23.47;64.85
61026;BME280;46911;32.650;-16.902;2022-07-17T09:53:41;101721.34;;;23.02;66.39
61026;BME280;46911;32.650;-16.902;2022-07-17T09:55:48;101725.41;;;22.98;67.25
61026;BME280;46911;32.650;-16.902;2022-07-17T09:57:50;101721.81;;;23.75;65.42
61026;BME280;46911;32.650;-16.902;2022-07-17T09:59:58;101717.88;;;23.69;64.98
61026;BME280;46911;32.650;-16.902;2022-07-17T10:02:13;101740.53;;;23.86;64.49
61026;BME280;46911;32.650;-16.902;2022-07-17T10:04:15;101726.38;;;23.66;64.90
61026;BME280;46911;32.650;-16.902;2022-07-17T10:06:20;101707.91;;;23.44;65.27
61026;BME280;46911;32.650;-16.902;2022-07-17T10:08:24;101747.16;;;23.76;64.85
61026;BME280;46911;32.650;-16.902;2022-07-17T10:10:25;101725.31;;;24.27;62.80
61026;BME280;46911;32.650;-16.902;2022-07-17T10:12:29;101724.25;;;24.61;61.53
61026;BME280;46911;32.650;-16.902;2022-07-17T10:14:33;101740.16;;;24.65;61.34
61026;BME280;46911;32.650;-16.902;2022-07-17T10:16:39;101733.63;;;24.91;60.56
61026;BME280;46911;32.650;-16.902;2022-07-17T10:18:45;101743.88;;;25.37;60.47
61026;BME280;46911;32.650;-16.902;2022-07-17T10:20:52;101733.63;;;25.70;59.42
61026;BME280;46911;32.650;-16.902;2022-07-17T10:22:53;101747.25;;;26.10;57.38
61026;BME280;46911;32.650;-16.902;2022-07-17T10:24:56;101743.25;;;26.21;56.81
61026;BME280;46911;32.650;-16.902;2022-07-17T10:27:00;101748.78;;;25.50;57.17